Time;durP1;ratioP1;P1;durP2;ratioP2;P2;SDS_P1;SDS_P2;PMS_P1;PMS_P2;Temp;Humidity;BMP_temperature;BMP_pressure;BME280_temperature;BME280_humidity;BME280_pressure;Samples;Min_cycle;Max_cycle;Signal;HPM_P1;HPM_P2
2022/01/26 00:06:11;;;;;;;;;25.50;21.25;;;;;16.22;52.93;103398.59;5032230;28;11101;-73
2022/01/26 00:08:38;;;;;;;;;23.50;22.50;;;;;16.22;52.67;103401.22;5032296;28;10283;-72
2022/01/26 00:11:03;;;;;;;;;24.00;22.25;;;;;16.23;52.87;103399.47;5031355;28;10182;-73
2022/01/26 00:13:28;;;;;;;;;32.75;28.50;;;;;16.22;52.60;103397.69;5032059;28;10377;-74
2022/01/26 00:15:55;;;;;;;;;27.50;24.25;;;;;16.23;52.61;103391.56;5031725;28;8787;-74
2022/01/26 00:18:22;;;;;;;;;23.00;20.00;;;;;16.22;52.51;103390.69;5031709;28;8785;-72
2022/01/26 00:20:55;;;;;;;;;26.50;25.50;;;;;16.21;52.68;103380.06;5032125;28;10181;-73
2022/01/26 00:26:22;;;;;;;;;31.00;26.25;;;;;16.19;52.47;103368.56;5032075;28;10453;-72
2022/01/26 00:29:08;;;;;;;;;23.00;22.00;;;;;16.17;52.67;103367.59;5031966;28;11181;-73
2022/01/26 00:33:06;;;;;;;;;25.75;25.75;;;;;16.17;52.56;103372.88;5011428;28;10216;-74
2022/01/26 00:40:27;;;;;;;;;25.75;25.50;;;;;16.19;52.57;103366.84;5010705;28;10286;-73
2022/01/26 00:42:57;;;;;;;;;26.75;24.75;;;;;16.17;52.48;103371.13;5011759;28;10263;-73
2022/01/26 00:45:26;;;;;;;;;30.00;27.00;;;;;16.17;52.50;103364.97;5010914;28;10287;-73
2022/01/26 00:47:51;;;;;;;;;24.75;23.50;;;;;16.16;52.62;103360.56;5011722;28;10469;-73
2022/01/26 00:50:17;;;;;;;;;21.50;21.50;;;;;16.18;52.26;103350.94;5011741;28;10333;-72
2022/01/26 00:52:45;;;;;;;;;22.50;20.50;;;;;16.13;52.18;103348.13;5010928;28;8783;-73
2022/01/26 00:55:16;;;;;;;;;26.50;26.00;;;;;16.15;52.35;103345.56;5011225;28;8789;-73
2022/01/26 00:57:43;;;;;;;;;27.50;27.50;;;;;16.12;52.25;103340.19;5011493;28;10320;-73
2022/01/26 01:00:29;;;;;;;;;23.75;22.75;;;;;16.15;52.24;103341.19;5010642;28;10228;-73
2022/01/26 01:02:58;;;;;;;;;26.75;26.75;;;;;16.14;52.29;103351.66;5010982;28;10237;-74
2022/01/26 01:05:32;;;;;;;;;28.25;28.25;;;;;16.16;52.44;103342.09;5010604;28;10363;-73
2022/01/26 01:08:04;;;;;;;;;21.25;21.25;;;;;16.15;52.49;103345.56;5011302;28;10291;-73
2022/01/26 01:10:30;;;;;;;;;28.00;23.50;;;;;16.15;52.29;103338.56;5011323;28;10119;-73
2022/01/26 01:13:00;;;;;;;;;28.25;25.25;;;;;16.14;52.45;103335.84;5010431;28;10209;-73
2022/01/26 01:15:27;;;;;;;;;28.00;24.00;;;;;16.12;52.14;103325.25;5011133;28;11575;-73
2022/01/26 01:18:04;;;;;;;;;28.75;25.50;;;;;16.14;52.20;103328.84;5011440;28;10289;-72
2022/01/26 01:23:37;;;;;;;;;25.00;23.25;;;;;16.15;52.27;103322.75;5010608;28;10323;-73
2022/01/26 01:31:41;;;;;;;;;23.75;23.25;;;;;16.16;51.88;103303.44;5010631;28;10174;-72
2022/01/26 01:34:07;;;;;;;;;27.75;25.75;;;;;16.16;51.98;103308.72;5009885;28;10406;-72
2022/01/26 01:36:34;;;;;;;;;26.00;24.00;;;;;16.14;51.79;103298.97;5011154;28;10546;-73
2022/01/26 01:38:59;;;;;;;;;24.00;22.75;;;;;16.14;52.07;103296.31;5011063;28;10193;-72
2022/01/26 01:41:25;;;;;;;;;30.25;27.50;;;;;16.16;52.02;103292.03;5009897;28;10359;-72
2022/01/26 01:43:50;;;;;;;;;31.00;25.75;;;;;16.18;51.70;103298.25;5010950;28;8836;-73
2022/01/26 01:46:15;;;;;;;;;25.50;25.25;;;;;16.14;51.79;103297.22;5010641;28;8789;-74
2022/01/26 01:48:41;;;;;;;;;29.50;28.25;;;;;16.12;52.01;103295.38;5010545;28;8777;-72
2022/01/26 01:51:10;;;;;;;;;29.00;25.75;;;;;16.11;51.85;103289.22;5011510;28;8927;-72
2022/01/26 01:53:40;;;;;;;;;30.25;27.50;;;;;16.14;51.80;103301.59;5015256;28;8772;-74
2022/01/26 01:56:07;;;;;;;;;31.00;30.00;;;;;16.15;52.15;103285.84;5014194;28;10275;-73
2022/01/26 01:58:33;;;;;;;;;24.75;23.25;;;;;16.14;52.06;103283.16;5014711;28;10363;-72
2022/01/26 02:00:58;;;;;;;;;21.50;19.75;;;;;16.14;51.96;103280.50;5014646;28;10351;-72
2022/01/26 02:03:24;;;;;;;;;22.25;21.25;;;;;16.10;51.99;103274.22;5013634;28;8950;-73
2022/01/26 02:05:50;;;;;;;;;30.50;27.50;;;;;16.12;51.83;103277.81;5015019;28;8768;-73
2022/01/26 02:08:15;;;;;;;;;27.25;23.25;;;;;16.09;51.89;103277.69;5014198;28;10649;-72
2022/01/26 02:10:42;;;;;;;;;23.00;21.00;;;;;16.13;51.83;103262.91;5013906;28;9011;-73
2022/01/26 02:13:17;;;;;;;;;24.75;24.75;;;;;16.12;51.68;103266.41;5014478;28;8780;-73
2022/01/26 02:16:30;;;;;;;;;30.75;29.00;;;;;16.11;51.41;103286.56;5013859;28;10195;-71
2022/01/26 02:21:13;;;;;;;;;23.50;23.50;;;;;16.09;51.63;103271.53;5014615;28;10359;-72
2022/01/26 02:53:41;;;;;;;;;31.75;30.50;;;;;16.09;51.68;103255.72;5013669;28;10372;-72
2022/01/26 02:56:14;;;;;;;;;27.00;24.25;;;;;16.04;51.65;103245.03;5013724;28;10334;-72
2022/01/26 03:03:59;;;;;;;;;31.00;25.75;;;;;16.06;51.53;103229.25;5012840;28;10263;-72
2022/01/26 03:06:32;;;;;;;;;28.50;27.00;;;;;16.06;51.40;103232.78;5012575;28;10209;-74
2022/01/26 03:09:07;;;;;;;;;24.25;22.75;;;;;16.08;51.49;103214.41;5013416;28;10200;-72
2022/01/26 03:11:36;;;;;;;;;29.50;29.00;;;;;16.03;51.61;103214.22;5013483;28;10186;-73
2022/01/26 03:14:12;;;;;;;;;23.00;23.00;;;;;16.06;51.17;103216.06;5012818;28;10283;-73
2022/01/26 03:16:43;;;;;;;;;28.25;28.00;;;;;16.03;51.51;103216.88;5013819;28;10126;-73
2022/01/26 03:21:52;;;;;;;;;23.50;23.50;;;;;16.01;51.60;103230.84;5013584;28;10210;-73
2022/01/26 03:30:28;;;;;;;;;26.75;20.50;;;;;16.05;51.32;103228.34;4990797;28;10253;-72
2022/01/26 03:35:30;;;;;;;;;31.25;26.75;;;;;16.02;51.53;103208.91;5032676;28;10403;-72
2022/01/26 03:37:57;;;;;;;;;28.25;25.75;;;;;16.05;51.49;103198.47;5032977;28;8774;-71
2022/01/26 03:40:32;;;;;;;;;31.50;31.50;;;;;16.07;51.54;103212.59;5031796;28;10279;-71
2022/01/26 03:42:58;;;;;;;;;25.75;24.75;;;;;16.02;51.48;103199.25;5032800;28;11222;-73
2022/01/26 03:45:25;;;;;;;;;28.50;27.00;;;;;16.03;51.10;103205.44;5032190;28;10300;-73
2022/01/26 03:47:50;;;;;;;;;27.00;26.75;;;;;16.02;51.22;103206.25;5032225;28;10367;-73
2022/01/26 03:50:16;;;;;;;;;25.00;24.50;;;;;16.07;51.29;103223.16;5032670;28;10217;-73
2022/01/26 03:52:41;;;;;;;;;33.50;29.75;;;;;16.02;51.16;103235.25;5032441;28;8786;-72
2022/01/26 03:55:09;;;;;;;;;27.00;27.00;;;;;16.02;51.41;103241.41;5031882;28;8871;-71
2022/01/26 03:57:35;;;;;;;;;25.25;25.25;;;;;16.03;51.52;103240.59;5032411;28;8885;-72
2022/01/26 04:00:00;;;;;;;;;29.25;25.75;;;;;16.02;51.29;103240.50;5032625;28;10384;-72
2022/01/26 04:02:28;;;;;;;;;26.25;24.25;;;;;16.01;51.56;103242.25;5030997;28;8932;-72
2022/01/26 04:04:59;;;;;;;;;29.25;27.25;;;;;15.99;51.55;103248.31;5032766;28;8789;-72
2022/01/26 04:07:24;;;;;;;;;25.75;25.25;;;;;16.03;51.16;103250.22;5032255;28;10365;-72
2022/01/26 04:09:49;;;;;;;;;27.75;26.50;;;;;16.00;51.45;103260.66;5031990;28;10460;-72
2022/01/26 04:12:14;;;;;;;;;28.25;27.00;;;;;16.01;51.54;103278.28;5031839;28;9623;-72
2022/01/26 04:14:42;;;;;;;;;26.00;23.25;;;;;15.92;51.19;103270.91;5032386;28;8815;-72
2022/01/26 04:17:09;;;;;;;;;27.25;26.75;;;;;15.89;51.50;103282.22;5031378;28;9616;-73
2022/01/26 04:19:36;;;;;;;;;29.00;28.25;;;;;15.88;51.28;103283.06;5032051;28;10563;-73
2022/01/26 04:24:34;;;;;;;;;33.00;31.75;;;;;15.92;51.74;103273.53;5030957;28;10379;-73
2022/01/26 04:27:12;;;;;;;;;25.00;24.50;;;;;15.90;51.64;103246.22;5032165;28;8790;-74
2022/01/26 04:29:37;;;;;;;;;31.50;28.00;;;;;15.92;51.80;103213.84;5031156;28;10383;-73
2022/01/26 04:32:05;;;;;;;;;25.00;24.75;;;;;15.93;51.59;103220.88;5031889;28;11386;-73
2022/01/26 04:34:32;;;;;;;;;26.75;23.75;;;;;15.91;51.69;103208.50;5031923;28;8802;-73
2022/01/26 04:40:16;;;;;;;;;23.75;23.25;;;;;15.88;51.46;103204.03;5031668;28;10931;-73
2022/01/26 04:42:47;;;;;;;;;25.50;24.50;;;;;15.90;51.76;103204.06;5029389;28;11143;-72
2022/01/26 04:45:12;;;;;;;;;26.50;24.00;;;;;15.90;51.70;103226.03;5030902;28;10350;-74
2022/01/26 04:47:39;;;;;;;;;25.50;25.25;;;;;15.89;51.62;103228.63;5031339;28;10242;-72
2022/01/26 04:50:08;;;;;;;;;24.00;22.75;;;;;15.89;51.55;103226.00;5031719;28;8778;-72
2022/01/26 04:52:33;;;;;;;;;31.25;27.00;;;;;15.92;51.46;103224.38;5030612;28;10309;-72
2022/01/26 04:54:58;;;;;;;;;27.50;26.75;;;;;15.87;51.49;103228.56;5031624;28;10298;-73
2022/01/26 04:57:26;;;;;;;;;27.00;27.00;;;;;15.90;51.71;103219.88;5030323;28;8787;-72
2022/01/26 04:59:52;;;;;;;;;23.00;23.00;;;;;15.89;51.45;103226.00;5031382;28;8862;-72
2022/01/26 05:02:17;;;;;;;;;25.00;23.75;;;;;15.92;51.62;103220.84;5030366;28;10389;-72
2022/01/26 05:04:42;;;;;;;;;29.75;27.50;;;;;15.90;51.50;103211.97;5030751;28;8805;-72
2022/01/26 05:07:08;;;;;;;;;33.50;28.25;;;;;15.90;51.45;103212.88;5031120;28;8885;-73
2022/01/26 05:09:33;;;;;;;;;27.00;25.50;;;;;15.90;51.63;103204.97;5031409;28;8786;-72
2022/01/26 05:12:01;;;;;;;;;30.00;27.50;;;;;15.88;51.48;103204.03;5030722;28;8873;-73
2022/01/26 05:14:26;;;;;;;;;26.25;24.75;;;;;15.87;51.73;103206.59;5031088;28;8782;-72
2022/01/26 05:16:57;;;;;;;;;26.25;23.50;;;;;15.89;51.56;103203.19;5031065;28;10367;-73
2022/01/26 05:19:23;;;;;;;;;29.00;27.50;;;;;15.85;51.49;103192.47;5030334;28;8778;-72
2022/01/26 05:21:48;;;;;;;;;29.00;28.00;;;;;15.90;51.74;103207.59;5031243;28;10369;-71
2022/01/26 05:24:14;;;;;;;;;26.50;26.25;;;;;15.90;51.77;103198.78;5030874;28;8818;-72
2022/01/26 05:26:40;;;;;;;;;27.50;26.50;;;;;15.89;51.35;103190.03;5029659;28;8786;-72
2022/01/26 05:29:05;;;;;;;;;28.75;26.75;;;;;15.91;51.39;103190.06;5030671;28;8810;-73
2022/01/26 05:31:31;;;;;;;;;27.50;25.00;;;;;15.89;51.69;103195.28;5031249;28;8778;-73
2022/01/26 05:33:56;;;;;;;;;30.75;27.00;;;;;15.89;51.57;103189.13;5030709;28;8787;-73
2022/01/26 05:36:22;;;;;;;;;26.50;25.50;;;;;15.89;51.54;103194.38;5030710;28;8771;-72
2022/01/26 05:38:47;;;;;;;;;27.00;27.00;;;;;15.91;51.55;103216.41;5031079;28;8852;-72
2022/01/26 05:41:12;;;;;;;;;27.75;25.75;;;;;15.92;51.39;103212.94;5030172;28;8877;-72
2022/01/26 05:43:38;;;;;;;;;30.50;29.25;;;;;15.90;51.30;103207.59;5030994;28;8810;-72
2022/01/26 05:46:09;;;;;;;;;29.50;26.25;;;;;15.91;51.47;103206.78;5030725;28;8793;-72
2022/01/26 05:48:42;;;;;;;;;28.50;25.00;;;;;15.88;51.50;103205.75;5029941;28;9543;-72
2022/01/26 05:51:09;;;;;;;;;26.00;23.50;;;;;15.87;51.33;103215.41;5030792;28;10353;-73
2022/01/26 05:53:38;;;;;;;;;29.00;24.00;;;;;15.89;51.47;103220.72;5029982;28;11092;-72
2022/01/26 05:56:04;;;;;;;;;23.50;21.75;;;;;15.85;51.23;103230.25;5030348;28;10446;-73
2022/01/26 05:58:29;;;;;;;;;29.25;21.25;;;;;15.86;51.33;103226.75;5030888;28;10225;-73
2022/01/26 06:00:58;;;;;;;;;22.00;22.00;;;;;15.86;51.46;103229.41;5030344;28;10546;-74
2022/01/26 06:03:24;;;;;;;;;21.50;20.00;;;;;15.88;51.47;103233.00;5030639;28;8825;-74
2022/01/26 06:05:49;;;;;;;;;28.50;22.25;;;;;15.88;51.20;103222.47;5030909;28;10190;-72
2022/01/26 06:08:14;;;;;;;;;23.00;21.75;;;;;15.87;51.37;103215.41;5030152;28;8877;-73
2022/01/26 06:10:40;;;;;;;;;24.25;23.00;;;;;15.87;51.46;103212.75;5030971;28;8925;-73
2022/01/26 06:13:05;;;;;;;;;27.00;24.25;;;;;15.87;51.37;103209.22;5030554;28;8801;-73
2022/01/26 06:15:30;;;;;;;;;26.25;23.75;;;;;15.85;51.24;103200.38;5030103;28;8806;-73
2022/01/26 06:17:56;;;;;;;;;20.25;20.25;;;;;15.88;51.39;103201.41;5030634;28;8889;-73
2022/01/26 06:20:21;;;;;;;;;20.00;20.00;;;;;15.86;51.20;103196.88;5029959;28;8825;-73
2022/01/26 06:22:46;;;;;;;;;22.75;19.50;;;;;15.86;51.14;103196.88;5029925;28;8799;-72
2022/01/26 06:25:12;;;;;;;;;23.25;22.25;;;;;15.84;51.45;103201.22;5030609;28;8762;-72
2022/01/26 06:27:38;;;;;;;;;21.50;21.50;;;;;15.84;51.25;103204.75;5031004;28;8869;-72
2022/01/26 06:30:06;;;;;;;;;25.25;24.25;;;;;15.82;51.16;103198.50;5029512;28;8779;-72
2022/01/26 06:32:31;;;;;;;;;25.25;23.00;;;;;15.86;51.36;103202.16;5030686;28;10150;-73
2022/01/26 06:34:57;;;;;;;;;21.75;21.50;;;;;15.87;51.35;103196.97;5030888;28;10181;-73
2022/01/26 06:37:23;;;;;;;;;23.75;21.00;;;;;15.89;51.01;103197.03;5029353;28;8773;-72
2022/01/26 06:39:49;;;;;;;;;26.75;22.00;;;;;15.84;51.25;103191.56;5033799;28;8783;-72
2022/01/26 06:42:18;;;;;;;;;21.25;20.50;;;;;15.90;51.00;103190.91;5033490;28;10276;-71
2022/01/26 06:49:43;;;;;;;;;27.25;24.25;;;;;15.86;50.86;103224.13;5033967;28;10154;-73
2022/01/26 06:52:08;;;;;;;;;22.00;20.25;;;;;15.85;51.20;103232.00;5032390;28;8775;-74
2022/01/26 06:54:33;;;;;;;;;24.25;18.75;;;;;15.87;50.92;103225.03;5033743;28;8779;-73
2022/01/26 06:56:59;;;;;;;;;25.25;23.00;;;;;15.93;51.18;103225.28;5032779;28;8802;-72
2022/01/26 06:59:24;;;;;;;;;26.00;23.75;;;;;15.93;51.54;103217.38;5033338;28;8770;-70
2022/01/26 07:01:50;;;;;;;;;23.25;22.25;;;;;16.05;53.31;103217.81;5033709;28;8814;-71
2022/01/26 07:04:16;;;;;;;;;20.75;20.75;;;;;16.14;54.27;103201.44;5032589;28;8821;-71
2022/01/26 07:06:41;;;;;;;;;27.50;23.25;;;;;16.22;54.85;103216.72;5033823;28;8856;-70
2022/01/26 07:09:06;;;;;;;;;24.00;23.25;;;;;16.28;57.82;103230.09;5033208;28;8817;-70
2022/01/26 07:11:32;;;;;;;;;23.25;21.75;;;;;16.37;58.26;103227.81;5032988;28;8774;-71
2022/01/26 07:13:59;;;;;;;;;22.75;20.25;;;;;16.38;58.15;103231.34;5033226;28;8858;-71
2022/01/26 07:21:53;;;;;;;;;22.75;22.75;;;;;16.51;59.72;103241.47;5033240;28;10813;-73
2022/01/26 07:24:18;;;;;;;;;20.75;19.00;;;;;16.50;59.13;103257.22;5032543;28;10296;-73
2022/01/26 07:26:45;;;;;;;;;23.75;20.50;;;;;16.57;57.96;103261.94;5032851;28;8775;-76
2022/01/26 07:29:12;;;;;;;;;20.75;18.00;;;;;16.62;58.08;103248.06;5031789;28;8806;-73
2022/01/26 07:31:46;;;;;;;;;27.00;23.50;;;;;16.64;58.36;103254.28;5033070;28;10130;-73
2022/01/26 07:34:13;;;;;;;;;18.25;16.75;;;;;16.63;58.90;103243.69;5031413;28;10134;-74
2022/01/26 07:36:39;;;;;;;;;22.00;19.25;;;;;16.63;58.93;103239.31;5031344;28;10081;-73
2022/01/26 07:39:08;;;;;;;;;17.25;17.00;;;;;16.65;58.98;103250.78;5031085;28;10175;-74
2022/01/26 07:41:37;;;;;;;;;21.50;19.50;;;;;16.65;59.04;103250.78;5032208;28;10195;-74
2022/01/26 07:44:03;;;;;;;;;25.25;23.00;;;;;16.64;59.35;103248.13;5032070;28;10064;-73
2022/01/26 07:46:29;;;;;;;;;21.25;19.25;;;;;16.64;59.00;103253.41;5031703;28;10120;-74
2022/01/26 07:48:54;;;;;;;;;21.50;20.25;;;;;16.59;59.92;103261.13;5029652;28;10010;-73
2022/01/26 07:51:20;;;;;;;;;23.75;22.25;;;;;16.63;59.43;103254.22;5030022;28;8814;-73
2022/01/26 07:53:48;;;;;;;;;22.75;18.75;;;;;16.61;60.01;103251.53;5028594;28;8810;-73
2022/01/26 07:56:14;;;;;;;;;20.00;18.75;;;;;16.65;60.14;103253.44;5030612;28;8826;-73
2022/01/26 07:58:40;;;;;;;;;17.00;11.50;;;;;16.67;60.26;103249.13;5031585;28;10066;-74
2022/01/26 08:01:06;;;;;;;;;19.75;15.75;;;;;16.67;59.77;103248.22;5030243;28;8891;-74
2022/01/26 08:03:33;;;;;;;;;22.75;18.75;;;;;16.65;59.77;103244.63;5029040;28;9923;-73
2022/01/26 08:06:03;;;;;;;;;16.50;16.50;;;;;16.61;59.75;103240.09;5031450;28;8810;-74
2022/01/26 08:08:29;;;;;;;;;21.00;19.75;;;;;16.56;60.00;103241.63;5030670;28;10074;-73
2022/01/26 08:10:55;;;;;;;;;20.00;19.25;;;;;16.57;59.85;103244.34;5031239;28;9971;-75
2022/01/26 08:13:21;;;;;;;;;17.00;17.00;;;;;16.54;59.88;103236.28;5030558;28;8818;-76
2022/01/26 08:15:46;;;;;;;;;20.75;19.00;;;;;16.51;59.83;103232.66;5030191;28;10079;-74
2022/01/26 08:18:11;;;;;;;;;22.75;21.75;;;;;16.51;59.62;103230.03;5030872;28;8779;-72
2022/01/26 08:20:36;;;;;;;;;20.50;19.25;;;;;16.50;58.84;103241.41;5031404;28;8814;-74
2022/01/26 08:23:02;;;;;;;;;17.50;17.50;;;;;16.42;58.86;103236.75;5035685;28;9548;-73
2022/01/26 08:25:28;;;;;;;;;20.75;19.00;;;;;16.44;58.57;103231.56;5031091;28;8813;-73
2022/01/26 08:28:01;;;;;;;;;19.25;18.75;;;;;16.43;58.29;103237.66;5031039;28;8794;-72
2022/01/26 08:30:28;;;;;;;;;23.75;19.00;;;;;16.41;58.01;103242.91;5029684;28;10270;-72
2022/01/26 08:32:53;;;;;;;;;20.00;18.00;;;;;16.39;57.82;103239.28;5036598;28;10053;-73
2022/01/26 08:35:19;;;;;;;;;19.75;17.00;;;;;16.38;57.41;103237.47;5049950;28;9880;-74
2022/01/26 08:37:44;;;;;;;;;20.75;19.25;;;;;16.37;57.28;103233.06;5039706;28;8817;-72
2022/01/26 08:40:10;;;;;;;;;13.25;11.75;;;;;16.38;57.12;103245.41;5034283;28;10555;-73
2022/01/26 08:42:37;;;;;;;;;15.75;15.75;;;;;16.37;57.05;103253.28;5025253;28;8790;-73
2022/01/26 08:45:03;;;;;;;;;19.75;19.50;;;;;16.41;56.59;103245.53;5030854;28;8794;-73
2022/01/26 08:47:29;;;;;;;;;15.50;14.25;;;;;16.43;56.55;103253.47;5016206;28;9724;-73
2022/01/26 08:49:54;;;;;;;;;16.25;14.00;;;;;16.39;56.41;103249.84;5027621;28;10594;-73
2022/01/26 08:52:19;;;;;;;;;19.00;17.75;;;;;16.42;56.73;103243.78;5027065;28;8960;-72
2022/01/26 08:54:44;;;;;;;;;14.75;14.50;;;;;16.39;56.40;103241.03;5019575;28;8824;-72
2022/01/26 08:57:10;;;;;;;;;15.50;15.25;;;;;16.36;55.97;103246.19;5025567;28;11200;-72
2022/01/26 08:59:35;;;;;;;;;18.00;14.50;;;;;16.37;55.81;103246.25;5032489;28;8834;-72
2022/01/26 09:02:00;;;;;;;;;14.00;13.75;;;;;16.38;55.54;103245.41;5044511;28;9584;-73
2022/01/26 09:04:26;;;;;;;;;19.75;15.75;;;;;16.38;55.17;103237.47;5039326;28;8814;-72
2022/01/26 09:06:54;;;;;;;;;16.25;15.75;;;;;16.39;55.09;103235.75;5030381;28;9593;-72
2022/01/26 09:09:21;;;;;;;;;13.75;13.00;;;;;16.36;55.13;103236.56;5029649;28;9645;-72
2022/01/26 09:11:48;;;;;;;;;16.75;15.00;;;;;16.38;54.98;103234.84;5029574;28;9801;-73
2022/01/26 09:14:23;;;;;;;;;13.25;12.75;;;;;16.37;54.62;103226.91;5046828;28;9890;-74
2022/01/26 09:16:51;;;;;;;;;14.00;13.25;;;;;16.35;54.42;103231.22;5034927;28;9842;-73
2022/01/26 09:19:28;;;;;;;;;15.00;15.00;;;;;16.34;54.35;103243.53;5027548;28;9859;-72
2022/01/26 09:22:16;;;;;;;;;15.00;14.00;;;;;16.35;54.18;103229.47;5037832;28;9720;-73
2022/01/26 09:24:43;;;;;;;;;13.25;13.00;;;;;16.36;54.27;103233.91;5023745;28;10013;-72
2022/01/26 09:27:14;;;;;;;;;17.50;14.25;;;;;16.34;54.00;103235.59;5031639;28;9800;-71
2022/01/26 09:29:40;;;;;;;;;12.00;11.00;;;;;16.36;53.83;103231.28;5035974;28;9816;-72
2022/01/26 09:32:07;;;;;;;;;16.25;16.25;;;;;16.35;54.14;103224.19;5034064;28;9831;-73
2022/01/26 09:34:35;;;;;;;;;13.75;12.00;;;;;16.36;53.90;103218.09;5039911;28;9842;-73
2022/01/26 09:37:12;;;;;;;;;14.25;12.25;;;;;16.37;53.88;103221.63;5030144;28;10424;-72
2022/01/26 09:39:38;;;;;;;;;15.75;12.00;;;;;16.34;53.81;103225.06;5037485;28;9986;-73
2022/01/26 09:42:04;;;;;;;;;12.50;11.00;;;;;16.35;53.50;103223.28;5049136;28;9812;-73
2022/01/26 09:44:33;;;;;;;;;15.00;14.75;;;;;16.37;53.60;103242.72;5049487;28;9853;-73
2022/01/26 09:47:01;;;;;;;;;13.75;12.00;;;;;16.43;53.63;103257.00;5049008;28;11463;-73
2022/01/26 09:49:34;;;;;;;;;13.00;11.00;;;;;16.42;53.72;103244.66;5049833;28;9733;-72
2022/01/26 09:52:06;;;;;;;;;11.00;11.00;;;;;16.42;53.87;103236.75;5034452;28;9811;-72
2022/01/26 09:54:32;;;;;;;;;13.50;13.00;;;;;16.37;53.78;103241.00;5042927;28;9671;-73
2022/01/26 09:57:03;;;;;;;;;10.75;10.00;;;;;16.39;53.51;103233.13;5044380;28;9840;-72
2022/01/26 09:59:29;;;;;;;;;15.75;14.50;;;;;16.37;53.57;103224.25;5049794;28;9536;-73
2022/01/26 10:01:55;;;;;;;;;15.50;14.25;;;;;16.36;53.37;103223.38;5049077;28;9684;-72
2022/01/26 10:04:37;;;;;;;;;14.50;12.25;;;;;16.37;53.35;103233.06;5048428;28;9880;-71
2022/01/26 10:09:59;;;;;;;;;14.75;13.75;;;;;16.36;53.35;103235.66;5049712;28;9734;-72
2022/01/26 10:18:09;;;;;;;;;13.25;11.50;;;;;16.33;53.20;103233.81;5033361;28;9665;-72
2022/01/26 10:20:57;;;;;;;;;20.50;15.00;;;;;16.33;53.13;103247.00;5045592;28;9726;-72
2022/01/26 10:23:28;;;;;;;;;12.75;11.75;;;;;16.33;52.93;103243.44;5034973;28;9765;-72
2022/01/26 10:26:08;;;;;;;;;13.00;11.25;;;;;16.35;52.85;103249.66;5053531;28;9871;-72
2022/01/26 10:28:56;;;;;;;;;10.50;10.25;;;;;16.34;52.84;103248.78;5052249;28;10411;-71
2022/01/26 10:31:27;;;;;;;;;11.50;11.50;;;;;16.33;52.92;103249.63;5028422;28;9786;-73
2022/01/26 10:34:04;;;;;;;;;12.00;11.25;;;;;16.35;53.06;103253.19;5031660;28;9831;-73
2022/01/26 10:36:48;;;;;;;;;11.25;10.50;;;;;16.33;52.78;103248.72;5032750;28;9733;-73
2022/01/26 10:39:24;;;;;;;;;12.00;11.00;;;;;16.34;52.66;103251.44;5032941;28;9839;-72
2022/01/26 10:41:52;;;;;;;;;17.00;12.75;;;;;16.34;53.12;103246.16;5033124;28;9828;-73
2022/01/26 10:44:46;;;;;;;;;13.00;13.00;;;;;16.33;52.82;103235.53;5040177;28;9844;-73
2022/01/26 10:47:11;;;;;;;;;14.50;14.50;;;;;16.34;52.99;103235.59;5050016;28;9766;-73
2022/01/26 10:52:34;;;;;;;;;10.00;10.00;;;;;16.33;52.88;103239.09;5031291;28;8881;-75
2022/01/26 10:55:00;;;;;;;;;8.50;8.50;;;;;16.36;53.09;103233.91;5031638;28;10614;-76
2022/01/26 10:57:26;;;;;;;;;12.00;11.00;;;;;16.33;53.24;103228.53;5031414;28;9721;-76
2022/01/26 10:59:52;;;;;;;;;12.25;12.25;;;;;16.34;53.24;103224.16;5033562;28;8872;-76
2022/01/26 11:02:23;;;;;;;;;10.50;10.50;;;;;16.34;52.86;103224.16;5033261;28;8864;-75
2022/01/26 11:04:49;;;;;;;;;15.00;12.75;;;;;16.29;53.06;103212.53;5032376;28;10212;-75
2022/01/26 11:07:16;;;;;;;;;14.00;13.00;;;;;16.32;53.15;103217.91;5033186;28;9718;-75
2022/01/26 11:09:45;;;;;;;;;14.00;13.00;;;;;16.33;52.87;103210.09;5033364;28;8942;-77
2022/01/26 11:12:12;;;;;;;;;12.50;11.25;;;;;16.32;52.89;103212.66;5032216;28;9673;-76
2022/01/26 11:14:49;;;;;;;;;12.75;10.75;;;;;16.32;52.95;103212.66;5033389;28;9880;-76
2022/01/26 11:17:31;;;;;;;;;12.00;12.00;;;;;16.29;52.80;103213.44;5031842;28;10788;-77
2022/01/26 11:19:58;;;;;;;;;12.00;10.75;;;;;16.29;52.97;103209.91;5033206;28;10444;-76
2022/01/26 11:22:28;;;;;;;;;12.75;10.75;;;;;16.29;53.08;103208.19;5032631;28;10104;-76
2022/01/26 11:25:06;;;;;;;;;12.25;11.50;;;;;16.31;52.79;103213.47;5031802;28;9747;-76
2022/01/26 11:27:35;;;;;;;;;13.50;11.25;;;;;16.30;52.74;103203.81;5032785;28;9818;-76
2022/01/26 11:30:05;;;;;;;;;12.25;10.00;;;;;16.26;52.75;103194.88;5032683;28;9653;-75
2022/01/26 11:32:35;;;;;;;;;13.50;12.50;;;;;16.28;52.60;103201.09;5032128;28;9592;-76
2022/01/26 11:35:06;;;;;;;;;11.50;9.75;;;;;16.28;52.90;103197.56;5032805;28;9820;-77
2022/01/26 11:37:41;;;;;;;;;7.50;7.50;;;;;16.25;52.77;103187.81;5033007;28;9586;-76
2022/01/26 11:45:33;;;;;;;;;10.50;9.75;;;;;16.28;52.71;103189.66;5031924;28;9615;-76
2022/01/26 11:48:21;;;;;;;;;13.00;7.50;;;;;16.28;52.83;103189.66;5032525;28;8859;-76
2022/01/26 11:50:58;;;;;;;;;11.00;10.25;;;;;16.26;52.67;103186.09;5032825;28;9545;-76
2022/01/26 11:53:26;;;;;;;;;11.00;9.75;;;;;16.26;52.61;103191.34;5031743;28;9703;-75
2022/01/26 11:55:59;;;;;;;;;10.50;10.50;;;;;16.27;52.99;103193.16;5031381;28;9735;-74
2022/01/26 11:58:31;;;;;;;;;10.00;9.00;;;;;16.26;52.52;103186.97;5036656;28;9949;-74
2022/01/26 12:03:43;;;;;;;;;9.25;8.25;;;;;16.24;52.85;103199.19;5031703;28;9676;-73
2022/01/26 12:06:18;;;;;;;;;12.00;10.50;;;;;16.24;52.79;103195.66;5042293;28;9663;-74
2022/01/26 12:08:45;;;;;;;;;11.50;10.25;;;;;16.26;52.91;103199.25;5049809;28;9821;-74
2022/01/26 12:11:12;;;;;;;;;11.00;10.50;;;;;16.26;52.71;103192.25;5049176;28;9584;-75
2022/01/26 12:13:40;;;;;;;;;10.00;10.00;;;;;16.28;52.60;103194.94;5050914;28;9751;-77
2022/01/26 12:16:11;;;;;;;;;8.25;8.25;;;;;16.24;52.77;103188.66;5051427;28;9828;-75
2022/01/26 12:18:44;;;;;;;;;10.50;9.75;;;;;16.26;52.78;103194.88;5034537;28;9577;-76
2022/01/26 12:43:09;;;;;;;;;7.00;7.00;;;;;16.33;52.42;103170.53;5029821;28;9646;-75
2022/01/26 12:45:34;;;;;;;;;6.00;6.00;;;;;16.32;52.58;103166.09;5030787;28;9688;-75
2022/01/26 12:47:59;;;;;;;;;6.00;6.00;;;;;16.30;52.66;103157.25;5040587;28;8796;-74
2022/01/26 12:50:25;;;;;;;;;9.00;7.50;;;;;16.33;52.53;103167.00;5044163;28;10782;-75
2022/01/26 12:52:55;;;;;;;;;10.25;8.75;;;;;16.34;52.57;103164.44;5030325;28;9225;-73
2022/01/26 12:55:24;;;;;;;;;6.33;6.33;;;;;16.33;52.59;103162.63;5030616;28;8809;-74
2022/01/26 12:57:50;;;;;;;;;8.00;6.75;;;;;16.32;52.47;103165.19;5010915;28;9296;-74
2022/01/26 13:00:21;;;;;;;;;6.33;6.00;;;;;16.30;52.68;103151.97;5022496;28;9350;-74
2022/01/26 13:02:47;;;;;;;;;7.00;6.33;;;;;16.32;52.48;103141.47;5032422;28;8954;-74
2022/01/26 13:05:16;;;;;;;;;6.00;6.00;;;;;16.31;52.45;103148.47;5040135;28;9389;-73
2022/01/26 13:07:42;;;;;;;;;9.00;7.00;;;;;16.30;52.49;103143.16;5049376;28;10111;-75
2022/01/26 13:10:16;;;;;;;;;6.25;6.25;;;;;16.29;52.42;103136.09;5049580;28;9488;-75
2022/01/26 13:12:41;;;;;;;;;8.75;8.75;;;;;16.29;52.59;103139.63;5038425;28;9554;-74
2022/01/26 13:15:20;;;;;;;;;10.25;8.25;;;;;16.29;52.50;103138.72;5030253;28;9573;-74
2022/01/26 13:18:14;;;;;;;;;10.00;7.75;;;;;16.24;52.56;103129.75;5040649;28;8902;-74
2022/01/26 13:28:56;;;;;;;;;6.50;5.25;;;;;16.25;52.56;103123.66;5026560;28;10309;-74
2022/01/26 13:32:03;;;;;;;;;9.25;9.00;;;;;16.23;52.57;103114.81;5049104;28;9596;-76
2022/01/26 13:37:15;;;;;;;;;5.25;4.25;;;;;16.33;52.20;103123.09;5029487;28;9479;-73
2022/01/26 13:40:09;;;;;;;;;6.25;6.25;;;;;16.36;52.07;103120.53;5032293;28;9506;-74
2022/01/26 13:45:47;;;;;;;;;6.50;6.50;;;;;16.43;51.75;103111.09;5028890;28;9675;-74
2022/01/26 13:48:34;;;;;;;;;6.00;6.00;;;;;16.42;51.66;103117.25;5030846;28;9667;-73